sensor_id;sensor_type;location;lat;lon;timestamp;pressure;altitude;pressure_sealevel;temperature;humidity
59337;BME280;45115;52.002;4.686;2023-09-18T00:00:50;65732.28;;;18.37;100.00
59337;BME280;45115;52.002;4.686;2023-09-18T00:03:16;65744.16;;;18.45;100.00
59337;BME280;45115;52.002;4.686;2023-09-18T00:05:44;65736.50;;;18.45;100.00
59337;BME280;45115;52.002;4.686;2023-09-18T00:08:11;65737.41;;;18.41;100.00
59337;BME280;45115;52.002;4.686;2023-09-18T00:10:37;65738.56;;;18.42;100.00
59337;BME280;45115;52.002;4.686;2023-09-18T00:13:04;65737.53;;;18.44;100.00
59337;BME280;45115;52.002;4.686;2023-09-18T00:15:31;65743.69;;;18.47;100.00
59337;BME280;45115;52.002;4.686;2023-09-18T00:17:59;65752.72;;;18.52;100.00
59337;BME280;45115;52.002;4.686;2023-09-18T00:20:26;65747.78;;;18.53;100.00
59337;BME280;45115;52.002;4.686;2023-09-18T00:22:53;65744.94;;;18.50;100.00
59337;BME280;45115;52.002;4.686;2023-09-18T00:25:20;65743.22;;;18.49;100.00
59337;BME280;45115;52.002;4.686;2023-09-18T00:27:47;65753.28;;;18.53;100.00
59337;BME280;45115;52.002;4.686;2023-09-18T00:30:14;65751.56;;;18.51;100.00
59337;BME280;45115;52.002;4.686;2023-09-18T00:32:40;65745.41;;;18.48;100.00
59337;BME280;45115;52.002;4.686;2023-09-18T00:35:08;65743.59;;;18.44;100.00
59337;BME280;45115;52.002;4.686;2023-09-18T00:37:35;65734.09;;;18.41;100.00
59337;BME280;45115;52.002;4.686;2023-09-18T00:40:02;65732.16;;;18.34;100.00
59337;BME280;45115;52.002;4.686;2023-09-18T00:42:30;65734.66;;;18.41;100.00
59337;BME280;45115;52.002;4.686;2023-09-18T00:44:57;65730.53;;;18.35;100.00
59337;BME280;45115;52.002;4.686;2023-09-18T00:47:24;65732.84;;;18.37;100.00
59337;BME280;45115;52.002;4.686;2023-09-18T00:49:52;65731.03;;;18.33;100.00
59337;BME280;45115;52.002;4.686;2023-09-18T00:52:23;65730.53;;;18.35;100.00
59337;BME280;45115;52.002;4.686;2023-09-18T00:54:50;65728.94;;;18.36;100.00
59337;BME280;45115;52.002;4.686;2023-09-18T00:57:18;65730.53;;;18.35;100.00
59337;BME280;45115;52.002;4.686;2023-09-18T00:59:45;65727.72;;;18.33;100.00
59337;BME280;45115;52.002;4.686;2023-09-18T01:02:12;65732.75;;;18.35;100.00
59337;BME280;45115;52.002;4.686;2023-09-18T01:04:39;65728.28;;;18.33;100.00
59337;BME280;45115;52.002;4.686;2023-09-18T01:07:09;65730.53;;;18.35;100.00
59337;BME280;45115;52.002;4.686;2023-09-18T01:09:38;65735.59;;;18.37;100.00
59337;BME280;45115;52.002;4.686;2023-09-18T01:12:09;65738.00;;;18.42;100.00
59337;BME280;45115;52.002;4.686;2023-09-18T01:14:40;65732.84;;;18.37;100.00
59337;BME280;45115;52.002;4.686;2023-09-18T01:17:09;65732.94;;;18.40;100.00
59337;BME280;45115;52.002;4.686;2023-09-18T01:19:37;65732.28;;;18.37;100.00
59337;BME280;45115;52.002;4.686;2023-09-18T01:22:05;65732.75;;;18.35;100.00
59337;BME280;45115;52.002;4.686;2023-09-18T01:24:34;65726.56;;;18.32;100.00
59337;BME280;45115;52.002;4.686;2023-09-18T01:27:01;65716.41;;;18.25;100.00
59337;BME280;45115;52.002;4.686;2023-09-18T01:29:29;65725.31;;;18.28;100.00
59337;BME280;45115;52.002;4.686;2023-09-18T01:31:56;65715.72;;;18.22;100.00
59337;BME280;45115;52.002;4.686;2023-09-18T01:34:26;65705.47;;;18.13;100.00
59337;BME280;45115;52.002;4.686;2023-09-18T01:36:57;65703.19;;;18.11;100.00
59337;BME280;45115;52.002;4.686;2023-09-18T01:39:25;65694.06;;;18.03;100.00
59337;BME280;45115;52.002;4.686;2023-09-18T01:41:59;65701.47;;;18.10;100.00
59337;BME280;45115;52.002;4.686;2023-09-18T01:44:27;65701.47;;;18.10;100.00
59337;BME280;45115;52.002;4.686;2023-09-18T01:46:55;65702.13;;;18.13;100.00
59337;BME280;45115;52.002;4.686;2023-09-18T01:49:30;65711.06;;;18.16;100.00
59337;BME280;45115;52.002;4.686;2023-09-18T01:51:57;65703.28;;;18.14;100.00
59337;BME280;45115;52.002;4.686;2023-09-18T01:54:24;65699.66;;;18.06;100.00
59337;BME280;45115;52.002;4.686;2023-09-18T01:56:51;65709.47;;;18.17;100.00
59337;BME280;45115;52.002;4.686;2023-09-18T01:59:20;65715.72;;;18.22;100.00
59337;BME280;45115;52.002;4.686;2023-09-18T02:01:48;65717.31;;;18.21;100.00
59337;BME280;45115;52.002;4.686;2023-09-18T02:04:15;65712.88;;;18.20;100.00
59337;BME280;45115;52.002;4.686;2023-09-18T02:06:44;65706.25;;;18.19;100.00
59337;BME280;45115;52.002;4.686;2023-09-18T02:09:11;65709.56;;;18.19;100.00
59337;BME280;45115;52.002;4.686;2023-09-18T02:11:38;65712.88;;;18.20;100.00
59337;BME280;45115;52.002;4.686;2023-09-18T02:14:07;65717.44;;;18.24;100.00
59337;BME280;45115;52.002;4.686;2023-09-18T02:16:37;65713.56;;;18.23;100.00
59337;BME280;45115;52.002;4.686;2023-09-18T02:19:07;65717.44;;;18.24;100.00
59337;BME280;45115;52.002;4.686;2023-09-18T02:21:34;65719.06;;;18.23;100.00
59337;BME280;45115;52.002;4.686;2023-09-18T02:24:02;65720.97;;;18.29;100.00
59337;BME280;45115;52.002;4.686;2023-09-18T02:26:29;65729.31;;;18.32;100.00
59337;BME280;45115;52.002;4.686;2023-09-18T02:28:58;65726.78;;;18.37;100.00
59337;BME280;45115;52.002;4.686;2023-09-18T02:31:25;65725.44;;;18.31;100.00
59337;BME280;45115;52.002;4.686;2023-09-18T02:33:55;65726.09;;;18.34;100.00
59337;BME280;45115;52.002;4.686;2023-09-18T02:36:22;65725.53;;;18.33;100.00
59337;BME280;45115;52.002;4.686;2023-09-18T02:38:49;65710.69;;;18.20;100.00
59337;BME280;45115;52.002;4.686;2023-09-18T02:41:15;65719.16;;;18.25;100.00
59337;BME280;45115;52.002;4.686;2023-09-18T02:43:42;65713.44;;;18.20;100.00
59337;BME280;45115;52.002;4.686;2023-09-18T02:46:09;65709.47;;;18.17;100.00
59337;BME280;45115;52.002;4.686;2023-09-18T02:48:35;65704.88;;;18.13;100.00
59337;BME280;45115;52.002;4.686;2023-09-18T02:51:04;65707.16;;;18.15;100.00
59337;BME280;45115;52.002;4.686;2023-09-18T02:53:31;65700.34;;;18.09;100.00
59337;BME280;45115;52.002;4.686;2023-09-18T02:55:59;65699.19;;;18.08;100.00
59337;BME280;45115;52.002;4.686;2023-09-18T02:58:26;65696.34;;;18.05;100.00
59337;BME280;45115;52.002;4.686;2023-09-18T03:00:55;65687.22;;;17.97;100.00
59337;BME280;45115;52.002;4.686;2023-09-18T03:03:23;65695.78;;;18.05;100.00
59337;BME280;45115;52.002;4.686;2023-09-18T03:05:51;65695.56;;;18.00;100.00
59337;BME280;45115;52.002;4.686;2023-09-18T03:08:19;65686.75;;;17.99;100.00
59337;BME280;45115;52.002;4.686;2023-09-18T03:10:46;65689.03;;;18.01;100.00
59337;BME280;45115;52.002;4.686;2023-09-18T03:13:14;65692.91;;;18.02;100.00
59337;BME280;45115;52.002;4.686;2023-09-18T03:15:44;65687.22;;;17.97;100.00
59337;BME280;45115;52.002;4.686;2023-09-18T03:18:13;65679.44;;;17.95;100.00
59337;BME280;45115;52.002;4.686;2023-09-18T03:20:41;65687.22;;;17.97;100.00
59337;BME280;45115;52.002;4.686;2023-09-18T03:23:08;65690.06;;;18.00;100.00
59337;BME280;45115;52.002;4.686;2023-09-18T03:25:36;65706.59;;;18.14;100.00
59337;BME280;45115;52.002;4.686;2023-09-18T03:28:04;65705.47;;;18.13;100.00
59337;BME280;45115;52.002;4.686;2023-09-18T03:30:32;65707.28;;;18.17;100.00
59337;BME280;45115;52.002;4.686;2023-09-18T03:33:00;65713.56;;;18.23;100.00
59337;BME280;45115;52.002;4.686;2023-09-18T03:35:28;65731.03;;;18.33;100.00
59337;BME280;45115;52.002;4.686;2023-09-18T05:10:49;65757.38;;;18.59;100.00
59337;BME280;45115;52.002;4.686;2023-09-18T05:13:16;65746.06;;;18.51;100.00
59337;BME280;45115;52.002;4.686;2023-09-18T05:15:43;65742.00;;;18.45;100.00
59337;BME280;45115;52.002;4.686;2023-09-18T05:18:09;65732.28;;;18.37;100.00
59337;BME280;45115;52.002;4.686;2023-09-18T05:20:36;65731.13;;;18.36;100.00
59337;BME280;45115;52.002;4.686;2023-09-18T05:23:03;65728.84;;;18.34;100.00
59337;BME280;45115;52.002;4.686;2023-09-18T05:25:29;65715.25;;;18.24;100.00
59337;BME280;45115;52.002;4.686;2023-09-18T05:28:00;65718.56;;;18.25;100.00
59337;BME280;45115;52.002;4.686;2023-09-18T05:30:28;65733.41;;;18.38;100.00
59337;BME280;45115;52.002;4.686;2023-09-18T05:32:56;65738.66;;;18.45;100.00
59337;BME280;45115;52.002;4.686;2023-09-18T05:35:29;65743.69;;;18.47;100.00
59337;BME280;45115;52.002;4.686;2023-09-18T05:37:56;65749.88;;;18.50;100.00
59337;BME280;45115;52.002;4.686;2023-09-18T05:40:24;65742.66;;;18.48;100.00
59337;BME280;45115;52.002;4.686;2023-09-18T05:42:53;65744.16;;;18.45;100.00
59337;BME280;45115;52.002;4.686;2023-09-18T05:45:22;65740.84;;;18.44;100.00
59337;BME280;45115;52.002;4.686;2023-09-18T05:47:49;65743.13;;;18.46;100.00
59337;BME280;45115;52.002;4.686;2023-09-18T05:50:16;65739.72;;;18.43;100.00
59337;BME280;45115;52.002;4.686;2023-09-18T05:52:43;65747.59;;;18.48;100.00
59337;BME280;45115;52.002;4.686;2023-09-18T05:55:10;65744.28;;;18.47;100.00
59337;BME280;45115;52.002;4.686;2023-09-18T05:57:37;65758.44;;;18.57;100.00
59337;BME280;45115;52.002;4.686;2023-09-18T06:00:05;65759.75;;;18.63;100.00
59337;BME280;45115;52.002;4.686;2023-09-18T06:02:39;65766.97;;;18.65;100.00
59337;BME280;45115;52.002;4.686;2023-09-18T06:05:07;65759.75;;;18.63;100.00
59337;BME280;45115;52.002;4.686;2023-09-18T06:07:37;65760.81;;;18.62;100.00
59337;BME280;45115;52.002;4.686;2023-09-18T06:10:04;65768.13;;;18.66;100.00
59337;BME280;45115;52.002;4.686;2023-09-18T06:12:31;65756.81;;;18.58;100.00
59337;BME280;45115;52.002;4.686;2023-09-18T06:14:57;65768.78;;;18.69;100.00
59337;BME280;45115;52.002;4.686;2023-09-18T06:17:24;65764.91;;;18.68;100.00
59337;BME280;45115;52.002;4.686;2023-09-18T06:19:52;65764.91;;;18.68;100.00
59337;BME280;45115;52.002;4.686;2023-09-18T06:22:19;65765.38;;;18.66;100.00
59337;BME280;45115;52.002;4.686;2023-09-18T06:24:45;65773.81;;;18.71;100.00
59337;BME280;45115;52.002;4.686;2023-09-18T06:27:12;65770.97;;;18.68;100.00
59337;BME280;45115;52.002;4.686;2023-09-18T06:29:38;65772.69;;;18.70;100.00
59337;BME280;45115;52.002;4.686;2023-09-18T06:32:07;65766.50;;;18.67;100.00
59337;BME280;45115;52.002;4.686;2023-09-18T06:34:33;65769.94;;;18.70;100.00
59337;BME280;45115;52.002;4.686;2023-09-18T06:37:01;65768.59;;;18.64;100.00
59337;BME280;45115;52.002;4.686;2023-09-18T06:39:29;65767.75;;;18.70;100.00
59337;BME280;45115;52.002;4.686;2023-09-18T06:41:56;65777.25;;;18.74;100.00
59337;BME280;45115;52.002;4.686;2023-09-18T06:44:23;65775.66;;;18.75;100.00
59337;BME280;45115;52.002;4.686;2023-09-18T06:46:50;65771.66;;;18.71;100.00
59337;BME280;45115;52.002;4.686;2023-09-18T06:49:18;65763.75;;;18.67;100.00
59337;BME280;45115;52.002;4.686;2023-09-18T06:51:44;65767.66;;;18.68;100.00
59337;BME280;45115;52.002;4.686;2023-09-18T06:54:12;65768.91;;;18.71;100.00
59337;BME280;45115;52.002;4.686;2023-09-18T06:56:39;65770.03;;;18.72;100.00
59337;BME280;45115;52.002;4.686;2023-09-18T06:59:06;65771.06;;;18.71;100.00
59337;BME280;45115;52.002;4.686;2023-09-18T07:01:33;65768.22;;;18.68;100.00
59337;BME280;45115;52.002;4.686;2023-09-18T07:04:00;65773.38;;;18.73;100.00
59337;BME280;45115;52.002;4.686;2023-09-18T07:06:27;65775.66;;;18.75;100.00
59337;BME280;45115;52.002;4.686;2023-09-18T07:08:54;65781.94;;;18.80;100.00
59337;BME280;45115;52.002;4.686;2023-09-18T07:11:22;65784.78;;;18.83;100.00
59337;BME280;45115;52.002;4.686;2023-09-18T07:13:48;65777.94;;;18.77;100.00
59337;BME280;45115;52.002;4.686;2023-09-18T07:16:15;65781.34;;;18.80;100.00
59337;BME280;45115;52.002;4.686;2023-09-18T07:18:42;65780.88;;;18.82;100.00
59337;BME280;45115;52.002;4.686;2023-09-18T07:21:08;65792.28;;;18.92;100.00
59337;BME280;45115;52.002;4.686;2023-09-18T07:23:35;65793.91;;;18.91;100.00
59337;BME280;45115;52.002;4.686;2023-09-18T07:26:02;65796.09;;;18.90;100.00
59337;BME280;45115;52.002;4.686;2023-09-18T07:28:30;65784.31;;;18.85;100.00
59337;BME280;45115;52.002;4.686;2023-09-18T07:31:04;65783.16;;;18.84;100.00
59337;BME280;45115;52.002;4.686;2023-09-18T07:33:31;65803.69;;;19.02;100.00
59337;BME280;45115;52.002;4.686;2023-09-18T07:35:57;65807.69;;;19.06;100.00
59337;BME280;45115;52.002;4.686;2023-09-18T07:38:24;65811.50;;;19.04;100.00
59337;BME280;45115;52.002;4.686;2023-09-18T07:40:50;65823.47;;;19.15;100.00
59337;BME280;45115;52.002;4.686;2023-09-18T07:43:17;65822.44;;;19.16;100.00
59337;BME280;45115;52.002;4.686;2023-09-18T07:45:45;65819.00;;;19.13;100.00
59337;BME280;45115;52.002;4.686;2023-09-18T07:48:12;65821.19;;;19.13;100.00
59337;BME280;45115;52.002;4.686;2023-09-18T07:50:43;65846.53;;;19.40;100.00
59337;BME280;45115;52.002;4.686;2023-09-18T07:53:10;65855.09;;;19.47;100.00
59337;BME280;45115;52.002;4.686;2023-09-18T07:55:36;65851.00;;;19.41;100.00
59337;BME280;45115;52.002;4.686;2023-09-18T07:58:03;65840.16;;;19.32;100.00
59337;BME280;45115;52.002;4.686;2023-09-18T08:00:30;65831.66;;;19.27;100.00
59337;BME280;45115;52.002;4.686;2023-09-18T08:02:59;65831.56;;;19.24;100.00
59337;BME280;45115;52.002;4.686;2023-09-18T08:05:27;65857.84;;;19.47;100.00
59337;BME280;45115;52.002;4.686;2023-09-18T08:07:55;65860.25;;;19.52;100.00
59337;BME280;45115;52.002;4.686;2023-09-18T08:10:24;65897.34;;;19.84;100.00
59337;BME280;45115;52.002;4.686;2023-09-18T08:12:51;65895.06;;;19.82;100.00
59337;BME280;45115;52.002;4.686;2023-09-18T08:15:19;65917.72;;;19.97;100.00
59337;BME280;45115;52.002;4.686;2023-09-18T08:17:46;65934.03;;;20.19;100.00
59337;BME280;45115;52.002;4.686;2023-09-18T08:20:16;65954.97;;;20.33;100.00
59337;BME280;45115;52.002;4.686;2023-09-18T08:22:43;66008.13;;;20.79;100.00
59337;BME280;45115;52.002;4.686;2023-09-18T08:25:10;66024.22;;;20.96;100.00
59337;BME280;45115;52.002;4.686;2023-09-18T08:27:38;66088.31;;;21.52;100.00
59337;BME280;45115;52.002;4.686;2023-09-18T08:30:08;66106.59;;;21.68;100.00
59337;BME280;45115;52.002;4.686;2023-09-18T08:32:35;66067.63;;;21.32;100.00
59337;BME280;45115;52.002;4.686;2023-09-18T08:35:02;66066.47;;;21.31;100.00
59337;BME280;45115;52.002;4.686;2023-09-18T08:37:31;66056.84;;;21.25;100.00
59337;BME280;45115;52.002;4.686;2023-09-18T08:39:57;66036.75;;;21.04;100.00
59337;BME280;45115;52.002;4.686;2023-09-18T08:42:25;66036.25;;;21.06;100.00
59337;BME280;45115;52.002;4.686;2023-09-18T08:44:54;66064.38;;;21.34;100.00
59337;BME280;45115;52.002;4.686;2023-09-18T08:47:23;66074.00;;;21.40;100.00
59337;BME280;45115;52.002;4.686;2023-09-18T08:49:51;66068.84;;;21.35;100.00
59337;BME280;45115;52.002;4.686;2023-09-18T08:52:20;66037.50;;;21.10;100.00
59337;BME280;45115;52.002;4.686;2023-09-18T08:54:49;66030.44;;;20.99;100.00
59337;BME280;45115;52.002;4.686;2023-09-18T08:57:17;66019.09;;;20.91;100.00
59337;BME280;45115;52.002;4.686;2023-09-18T08:59:44;66011.47;;;20.80;100.00
59337;BME280;45115;52.002;4.686;2023-09-18T09:02:12;65989.84;;;20.63;100.00
59337;BME280;45115;52.002;4.686;2023-09-18T09:04:39;65990.50;;;20.66;100.00
59337;BME280;45115;52.002;4.686;2023-09-18T09:07:05;65986.50;;;20.63;100.00
59337;BME280;45115;52.002;4.686;2023-09-18T09:09:32;65978.41;;;20.53;100.00
59337;BME280;45115;52.002;4.686;2023-09-18T09:12:00;65983.66;;;20.60;100.00
59337;BME280;45115;52.002;4.686;2023-09-18T09:14:27;65984.13;;;20.58;100.00
59337;BME280;45115;52.002;4.686;2023-09-18T09:16:55;65968.13;;;20.44;100.00
59337;BME280;45115;52.002;4.686;2023-09-18T09:19:30;65946.28;;;20.23;100.00
59337;BME280;45115;52.002;4.686;2023-09-18T09:21:57;65933.22;;;20.14;100.00
59337;BME280;45115;52.002;4.686;2023-09-18T09:24:40;65938.03;;;20.23;100.00
59337;BME280;45115;52.002;4.686;2023-09-18T09:27:08;65952.69;;;20.31;100.00
59337;BME280;45115;52.002;4.686;2023-09-18T09:29:35;65961.81;;;20.39;100.00
59337;BME280;45115;52.002;4.686;2023-09-18T09:32:15;65980.13;;;20.55;100.00
59337;BME280;45115;52.002;4.686;2023-09-18T09:34:43;65998.41;;;20.71;100.00
59337;BME280;45115;52.002;4.686;2023-09-18T09:37:09;66001.25;;;20.73;100.00
59337;BME280;45115;52.002;4.686;2023-09-18T09:39:46;65997.84;;;20.70;100.00
59337;BME280;45115;52.002;4.686;2023-09-18T09:42:17;66029.97;;;21.01;100.00
59337;BME280;45115;52.002;4.686;2023-09-18T09:45:00;66043.00;;;21.10;100.00
59337;BME280;45115;52.002;4.686;2023-09-18T09:47:32;66074.00;;;21.40;100.00
59337;BME280;45115;52.002;4.686;2023-09-18T09:50:06;66077.91;;;21.41;100.00
59337;BME280;45115;52.002;4.686;2023-09-18T09:52:33;66075.03;;;21.38;100.00
59337;BME280;45115;52.002;4.686;2023-09-18T09:55:00;66053.41;;;21.22;100.00
59337;BME280;45115;52.002;4.686;2023-09-18T09:57:28;66052.72;;;21.19;100.00
59337;BME280;45115;52.002;4.686;2023-09-18T10:00:03;66060.84;;;21.28;100.00
59337;BME280;45115;52.002;4.686;2023-09-18T10:02:39;66040.16;;;21.08;100.00
59337;BME280;45115;52.002;4.686;2023-09-18T10:05:06;66025.75;;;20.92;100.00
59337;BME280;45115;52.002;4.686;2023-09-18T10:07:32;66013.84;;;20.84;100.00
59337;BME280;45115;52.002;4.686;2023-09-18T10:09:59;66010.97;;;20.82;100.00
59337;BME280;45115;52.002;4.686;2023-09-18T10:12:29;65998.88;;;20.69;100.00
59337;BME280;45115;52.002;4.686;2023-09-18T10:15:01;66042.94;;;21.08;100.00
59337;BME280;45115;52.002;4.686;2023-09-18T10:17:31;66088.09;;;21.47;100.00
59337;BME280;45115;52.002;4.686;2023-09-18T10:20:02;66116.25;;;21.74;100.00
59337;BME280;45115;52.002;4.686;2023-09-18T10:22:38;66147.81;;;22.04;100.00
59337;BME280;45115;52.002;4.686;2023-09-18T10:25:11;66126.09;;;21.85;100.00
59337;BME280;45115;52.002;4.686;2023-09-18T10:27:45;66145.25;;;21.95;100.00
59337;BME280;45115;52.002;4.686;2023-09-18T10:30:16;66154.03;;;22.07;100.00
59337;BME280;45115;52.002;4.686;2023-09-18T10:32:44;66123.22;;;21.83;98.65
59337;BME280;45115;52.002;4.686;2023-09-18T10:35:13;66086.50;;;21.48;100.00
59337;BME280;45115;52.002;4.686;2023-09-18T10:37:41;66087.63;;;21.49;100.00
59337;BME280;45115;52.002;4.686;2023-09-18T10:40:09;66103.00;;;21.60;100.00
59337;BME280;45115;52.002;4.686;2023-09-18T10:42:38;66090.13;;;21.56;100.00
59337;BME280;45115;52.002;4.686;2023-09-18T10:45:08;66139.72;;;21.95;100.00
59337;BME280;45115;52.002;4.686;2023-09-18T10:47:37;66211.50;;;22.63;96.23
59337;BME280;45115;52.002;4.686;2023-09-18T10:50:05;66264.56;;;23.04;92.27
59337;BME280;45115;52.002;4.686;2023-09-18T10:52:33;66318.44;;;23.52;90.31
59337;BME280;45115;52.002;4.686;2023-09-18T10:55:00;66306.41;;;23.41;87.96
59337;BME280;45115;52.002;4.686;2023-09-18T10:57:33;66308.22;;;23.45;89.42
59337;BME280;45115;52.002;4.686;2023-09-18T11:00:00;66300.88;;;23.41;88.86
59337;BME280;45115;52.002;4.686;2023-09-18T11:02:29;66290.94;;;23.27;90.85
59337;BME280;45115;52.002;4.686;2023-09-18T11:04:56;66284.03;;;23.21;91.25
59337;BME280;45115;52.002;4.686;2023-09-18T11:07:23;66288.06;;;23.25;90.79
59337;BME280;45115;52.002;4.686;2023-09-18T11:09:50;66305.34;;;23.43;90.10
59337;BME280;45115;52.002;4.686;2023-09-18T11:12:17;66311.59;;;23.46;90.25
59337;BME280;45115;52.002;4.686;2023-09-18T11:14:46;66272.22;;;23.16;90.12
59337;BME280;45115;52.002;4.686;2023-09-18T11:17:33;66241.66;;;22.84;91.93
59337;BME280;45115;52.002;4.686;2023-09-18T11:20:05;66211.50;;;22.63;92.57
59337;BME280;45115;52.002;4.686;2023-09-18T11:22:34;66196.50;;;22.47;92.86
59337;BME280;45115;52.002;4.686;2023-09-18T11:25:35;66225.53;;;22.68;93.49
59337;BME280;45115;52.002;4.686;2023-09-18T11:28:04;66200.97;;;22.49;91.06
59337;BME280;45115;52.002;4.686;2023-09-18T11:30:33;66261.59;;;22.99;89.33
59337;BME280;45115;52.002;4.686;2023-09-18T11:33:04;66233.66;;;22.77;88.53
59337;BME280;45115;52.002;4.686;2023-09-18T11:35:31;66298.97;;;23.35;88.14
59337;BME280;45115;52.002;4.686;2023-09-18T11:38:06;66332.19;;;23.64;84.18
59337;BME280;45115;52.002;4.686;2023-09-18T11:40:35;66376.94;;;24.03;84.21
59337;BME280;45115;52.002;4.686;2023-09-18T11:43:24;66386.03;;;24.08;85.84
59337;BME280;45115;52.002;4.686;2023-09-18T11:45:56;66394.16;;;24.18;83.84
59337;BME280;45115;52.002;4.686;2023-09-18T11:48:26;66394.25;;;24.20;84.10
59337;BME280;45115;52.002;4.686;2023-09-18T11:50:56;66412.03;;;24.36;83.60
59337;BME280;45115;52.002;4.686;2023-09-18T11:53:24;66412.50;;;24.34;81.82
59337;BME280;45115;52.002;4.686;2023-09-18T11:55:51;66484.91;;;25.00;79.99
59337;BME280;45115;52.002;4.686;2023-09-18T11:58:18;66469.81;;;24.82;76.99
59337;BME280;45115;52.002;4.686;2023-09-18T12:00:49;66400.09;;;24.28;77.65
59337;BME280;45115;52.002;4.686;2023-09-18T12:03:17;66351.22;;;23.83;78.66
59337;BME280;45115;52.002;4.686;2023-09-18T12:05:54;66378.66;;;24.04;77.29
59337;BME280;45115;52.002;4.686;2023-09-18T12:08:22;66406.19;;;24.28;77.37
59337;BME280;45115;52.002;4.686;2023-09-18T12:10:49;66376.47;;;24.05;77.76
59337;BME280;45115;52.002;4.686;2023-09-18T12:13:16;66413.09;;;24.35;78.75
59337;BME280;45115;52.002;4.686;2023-09-18T12:15:43;66422.94;;;24.46;76.31
59337;BME280;45115;52.002;4.686;2023-09-18T12:18:10;66385.63;;;24.13;77.13
59337;BME280;45115;52.002;4.686;2023-09-18T12:20:44;66397.59;;;24.21;76.93
59337;BME280;45115;52.002;4.686;2023-09-18T12:23:13;66345.97;;;23.76;78.49
59337;BME280;45115;52.002;4.686;2023-09-18T12:25:39;66308.81;;;23.46;81.04
59337;BME280;45115;52.002;4.686;2023-09-18T12:28:07;66324.75;;;23.57;83.23
59337;BME280;45115;52.002;4.686;2023-09-18T12:30:34;66344.25;;;23.74;81.93
59337;BME280;45115;52.002;4.686;2023-09-18T12:33:00;66360.28;;;23.88;83.53
59337;BME280;45115;52.002;4.686;2023-09-18T12:35:29;66383.94;;;24.11;81.43
59337;BME280;45115;52.002;4.686;2023-09-18T12:37:57;66382.69;;;24.08;81.08
59337;BME280;45115;52.002;4.686;2023-09-18T12:40:26;66320.84;;;23.56;81.70
59337;BME280;45115;52.002;4.686;2023-09-18T12:42:55;66338.03;;;23.71;81.71
59337;BME280;45115;52.002;4.686;2023-09-18T12:45:22;66336.91;;;23.70;81.02
59337;BME280;45115;52.002;4.686;2023-09-18T12:47:50;66331.72;;;23.66;81.13
59337;BME280;45115;52.002;4.686;2023-09-18T12:50:17;66327.06;;;23.59;81.60
59337;BME280;45115;52.002;4.686;2023-09-18T12:52:44;66351.22;;;23.83;81.19
59337;BME280;45115;52.002;4.686;2023-09-18T12:55:20;66352.94;;;23.84;82.01
59337;BME280;45115;52.002;4.686;2023-09-18T12:57:50;66359.81;;;23.90;80.16
59337;BME280;45115;52.002;4.686;2023-09-18T13:00:18;66386.13;;;24.11;78.79
59337;BME280;45115;52.002;4.686;2023-09-18T13:02:48;66370.03;;;23.97;75.72
59337;BME280;45115;52.002;4.686;2023-09-18T13:05:19;66376.38;;;24.02;74.68
59337;BME280;45115;52.002;4.686;2023-09-18T13:07:46;66374.75;;;24.03;76.30
59337;BME280;45115;52.002;4.686;2023-09-18T13:10:13;66394.81;;;24.21;76.47
59337;BME280;45115;52.002;4.686;2023-09-18T13:12:42;66393.19;;;24.22;76.82
59337;BME280;45115;52.002;4.686;2023-09-18T13:15:10;66392.59;;;24.21;76.31
59337;BME280;45115;52.002;4.686;2023-09-18T13:17:38;66342.72;;;23.78;77.19
59337;BME280;45115;52.002;4.686;2023-09-18T13:20:13;66350.66;;;23.82;78.65
59337;BME280;45115;52.002;4.686;2023-09-18T13:22:41;66377.63;;;24.06;77.88
59337;BME280;45115;52.002;4.686;2023-09-18T13:25:08;66423.59;;;24.49;77.11
59337;BME280;45115;52.002;4.686;2023-09-18T13:27:36;66439.56;;;24.60;75.76
59337;BME280;45115;52.002;4.686;2023-09-18T13:30:05;66425.22;;;24.48;73.67
59337;BME280;45115;52.002;4.686;2023-09-18T13:32:37;66416.53;;;24.38;73.55
59337;BME280;45115;52.002;4.686;2023-09-18T13:35:04;66396.53;;;24.22;73.46
59337;BME280;45115;52.002;4.686;2023-09-18T13:37:32;66417.09;;;24.38;74.52
59337;BME280;45115;52.002;4.686;2023-09-18T13:39:59;66367.97;;;24.00;75.19
59337;BME280;45115;52.002;4.686;2023-09-18T13:42:27;66354.09;;;23.85;76.30
59337;BME280;45115;52.002;4.686;2023-09-18T13:44:56;66338.50;;;23.69;76.84
59337;BME280;45115;52.002;4.686;2023-09-18T13:47:22;66343.69;;;23.74;77.79
59337;BME280;45115;52.002;4.686;2023-09-18T13:49:50;66347.69;;;23.77;78.02
59337;BME280;45115;52.002;4.686;2023-09-18T13:52:17;66303.56;;;23.39;78.30
59337;BME280;45115;52.002;4.686;2023-09-18T13:54:46;66249.09;;;22.91;80.81
59337;BME280;45115;52.002;4.686;2023-09-18T13:57:16;66250.81;;;22.92;81.28
59337;BME280;45115;52.002;4.686;2023-09-18T13:59:43;66257.78;;;23.01;81.90
59337;BME280;45115;52.002;4.686;2023-09-18T14:02:10;66279.56;;;23.20;80.72
59337;BME280;45115;52.002;4.686;2023-09-18T14:04:37;66263.44;;;23.03;79.96
59337;BME280;45115;52.002;4.686;2023-09-18T14:07:05;66241.66;;;22.84;81.14
59337;BME280;45115;52.002;4.686;2023-09-18T14:09:32;66227.34;;;22.72;79.48
59337;BME280;45115;52.002;4.686;2023-09-18T14:11:59;66206.13;;;22.53;81.51
59337;BME280;45115;52.002;4.686;2023-09-18T14:14:26;66183.34;;;22.36;83.48
59337;BME280;45115;52.002;4.686;2023-09-18T14:16:53;66179.78;;;22.30;83.77
59337;BME280;45115;52.002;4.686;2023-09-18T14:19:20;66151.75;;;22.05;85.46
59337;BME280;45115;52.002;4.686;2023-09-18T14:21:47;66110.50;;;21.69;91.97
59337;BME280;45115;52.002;4.686;2023-09-18T14:24:16;66059.03;;;21.24;95.30
59337;BME280;45115;52.002;4.686;2023-09-18T14:26:44;66021.84;;;20.91;98.08
59337;BME280;45115;52.002;4.686;2023-09-18T14:29:11;65993.72;;;20.64;100.00
59337;BME280;45115;52.002;4.686;2023-09-18T14:31:39;65957.06;;;20.30;100.00